sensor_id;sensor_type;location;lat;lon;timestamp;pressure;altitude;pressure_sealevel;temperature;humidity
79309;BME280;68767;53.078;7.386;2023-07-20T00:00:59;101499.88;;;14.72;100.00
79309;BME280;68767;53.078;7.386;2023-07-20T00:03:26;101496.38;;;14.72;100.00
79309;BME280;68767;53.078;7.386;2023-07-20T00:05:53;101499.47;;;14.61;100.00
79309;BME280;68767;53.078;7.386;2023-07-20T00:08:20;101493.63;;;14.59;100.00
79309;BME280;68767;53.078;7.386;2023-07-20T00:10:47;101496.78;;;14.61;100.00
79309;BME280;68767;53.078;7.386;2023-07-20T00:13:14;101495.13;;;14.69;100.00
79309;BME280;68767;53.078;7.386;2023-07-20T00:15:42;101505.97;;;14.69;100.00
79309;BME280;68767;53.078;7.386;2023-07-20T00:18:09;101504.19;;;14.73;100.00
79309;BME280;68767;53.078;7.386;2023-07-20T00:20:36;101504.38;;;14.68;100.00
79309;BME280;68767;53.078;7.386;2023-07-20T00:23:03;101499.25;;;14.75;100.00
79309;BME280;68767;53.078;7.386;2023-07-20T00:25:30;101497.94;;;14.81;100.00
79309;BME280;68767;53.078;7.386;2023-07-20T00:27:57;101503.97;;;14.78;100.00
79309;BME280;68767;53.078;7.386;2023-07-20T00:30:24;101508.00;;;14.72;100.00
79309;BME280;68767;53.078;7.386;2023-07-20T00:32:51;101505.28;;;14.72;100.00
79309;BME280;68767;53.078;7.386;2023-07-20T00:35:18;101498.31;;;14.71;100.00
79309;BME280;68767;53.078;7.386;2023-07-20T00:37:45;101507.09;;;14.68;100.00
79309;BME280;68767;53.078;7.386;2023-07-20T00:40:12;101495.88;;;14.78;100.00
79309;BME280;68767;53.078;7.386;2023-07-20T00:42:39;101501.28;;;14.78;100.00
79309;BME280;68767;53.078;7.386;2023-07-20T00:45:06;101503.97;;;14.78;100.00
79309;BME280;68767;53.078;7.386;2023-07-20T00:47:33;101487.81;;;14.70;100.00
79309;BME280;68767;53.078;7.386;2023-07-20T00:50:02;101498.84;;;14.65;100.00
79309;BME280;68767;53.078;7.386;2023-07-20T00:52:31;101491.47;;;14.74;100.00
79309;BME280;68767;53.078;7.386;2023-07-20T00:54:58;101488.66;;;14.61;100.00
79309;BME280;68767;53.078;7.386;2023-07-20T00:57:25;101486.63;;;14.58;100.00
79309;BME280;68767;53.078;7.386;2023-07-20T00:59:52;101491.38;;;14.61;100.00
79309;BME280;68767;53.078;7.386;2023-07-20T01:02:19;101501.41;;;14.61;100.00
79309;BME280;68767;53.078;7.386;2023-07-20T01:04:47;101500.59;;;14.60;100.00
79309;BME280;68767;53.078;7.386;2023-07-20T01:07:24;101502.97;;;14.62;100.00
79309;BME280;68767;53.078;7.386;2023-07-20T01:10:07;101502.00;;;14.67;100.00
79309;BME280;68767;53.078;7.386;2023-07-20T01:12:42;101499.25;;;14.75;100.00
79309;BME280;68767;53.078;7.386;2023-07-20T01:15:09;101502.47;;;14.69;100.00
79309;BME280;68767;53.078;7.386;2023-07-20T01:17:36;101500.44;;;14.66;100.00
79309;BME280;68767;53.078;7.386;2023-07-20T01:20:06;101501.84;;;14.63;100.00
79309;BME280;68767;53.078;7.386;2023-07-20T01:31:21;101501.84;;;14.63;100.00
79309;BME280;68767;53.078;7.386;2023-07-20T01:33:51;101503.91;;;14.66;100.00
79309;BME280;68767;53.078;7.386;2023-07-20T01:36:22;101499.19;;;14.54;100.00
79309;BME280;68767;53.078;7.386;2023-07-20T01:38:51;101504.09;;;14.61;100.00
79309;BME280;68767;53.078;7.386;2023-07-20T01:41:19;101502.69;;;14.55;100.00
79309;BME280;68767;53.078;7.386;2023-07-20T01:43:47;101494.69;;;14.67;100.00
79309;BME280;68767;53.078;7.386;2023-07-20T01:46:15;101502.53;;;14.60;100.00
79309;BME280;68767;53.078;7.386;2023-07-20T01:48:42;101491.69;;;14.60;100.00
79309;BME280;68767;53.078;7.386;2023-07-20T01:51:09;101488.88;;;14.56;100.00
79309;BME280;68767;53.078;7.386;2023-07-20T01:53:36;101491.09;;;14.54;100.00
79309;BME280;68767;53.078;7.386;2023-07-20T01:56:03;101492.09;;;14.50;100.00
79309;BME280;68767;53.078;7.386;2023-07-20T01:58:30;101496.53;;;14.46;100.00
79309;BME280;68767;53.078;7.386;2023-07-20T02:00:57;101488.88;;;14.56;100.00
79309;BME280;68767;53.078;7.386;2023-07-20T02:03:24;101484.44;;;14.52;100.00
79309;BME280;68767;53.078;7.386;2023-07-20T02:05:53;101488.72;;;14.53;100.00
79309;BME280;68767;53.078;7.386;2023-07-20T02:08:20;101484.94;;;14.45;100.00
79309;BME280;68767;53.078;7.386;2023-07-20T02:10:47;101485.91;;;14.41;100.00
79309;BME280;68767;53.078;7.386;2023-07-20T02:13:15;101496.22;;;14.47;100.00
79309;BME280;68767;53.078;7.386;2023-07-20T02:15:42;101484.78;;;14.42;100.00
79309;BME280;68767;53.078;7.386;2023-07-20T02:18:10;101488.75;;;14.44;100.00
79309;BME280;68767;53.078;7.386;2023-07-20T02:20:37;101485.97;;;14.32;100.00
79309;BME280;68767;53.078;7.386;2023-07-20T02:23:03;101489.56;;;14.36;100.00
79309;BME280;68767;53.078;7.386;2023-07-20T02:25:31;101494.53;;;14.34;100.00
79309;BME280;68767;53.078;7.386;2023-07-20T02:27:57;101486.47;;;14.25;100.00
79309;BME280;68767;53.078;7.386;2023-07-20T02:30:25;101484.97;;;14.07;100.00
79309;BME280;68767;53.078;7.386;2023-07-20T02:32:56;101487.34;;;14.09;100.00
79309;BME280;68767;53.078;7.386;2023-07-20T02:35:25;101493.09;;;13.98;100.00
79309;BME280;68767;53.078;7.386;2023-07-20T02:37:52;101492.69;;;13.70;100.00
79309;BME280;68767;53.078;7.386;2023-07-20T02:40:20;101491.25;;;13.73;100.00
79309;BME280;68767;53.078;7.386;2023-07-20T02:42:47;101492.38;;;13.63;100.00
79309;BME280;68767;53.078;7.386;2023-07-20T02:45:14;101493.16;;;13.72;100.00
79309;BME280;68767;53.078;7.386;2023-07-20T02:47:41;101494.47;;;13.58;100.00
79309;BME280;68767;53.078;7.386;2023-07-20T02:50:08;101495.25;;;13.67;100.00
79309;BME280;68767;53.078;7.386;2023-07-20T02:52:35;101501.59;;;13.62;100.00
79309;BME280;68767;53.078;7.386;2023-07-20T02:55:02;101502.22;;;13.68;100.00
79309;BME280;68767;53.078;7.386;2023-07-20T02:57:29;101503.94;;;13.72;100.00
79309;BME280;68767;53.078;7.386;2023-07-20T02:59:56;101504.22;;;13.88;100.00
79309;BME280;68767;53.078;7.386;2023-07-20T03:02:23;101502.34;;;13.80;100.00
79309;BME280;68767;53.078;7.386;2023-07-20T03:04:49;101501.56;;;13.80;100.00
79309;BME280;68767;53.078;7.386;2023-07-20T03:07:16;101507.00;;;13.62;100.00
79309;BME280;68767;53.078;7.386;2023-07-20T03:09:46;101508.94;;;13.53;100.00
79309;BME280;68767;53.078;7.386;2023-07-20T03:12:13;101516.56;;;13.42;100.00
79309;BME280;68767;53.078;7.386;2023-07-20T03:14:40;101518.94;;;13.35;100.00
79309;BME280;68767;53.078;7.386;2023-07-20T03:17:07;101522.44;;;13.27;100.00
79309;BME280;68767;53.078;7.386;2023-07-20T03:19:35;101515.78;;;13.25;100.00
79309;BME280;68767;53.078;7.386;2023-07-20T03:22:02;101519.56;;;13.24;100.00
79309;BME280;68767;53.078;7.386;2023-07-20T03:24:29;101514.16;;;13.15;100.00
79309;BME280;68767;53.078;7.386;2023-07-20T03:26:56;101510.03;;;13.09;100.00
79309;BME280;68767;53.078;7.386;2023-07-20T03:29:24;101518.59;;;13.02;100.00
79309;BME280;68767;53.078;7.386;2023-07-20T03:31:51;101520.31;;;12.98;100.00
79309;BME280;68767;53.078;7.386;2023-07-20T03:34:18;101517.59;;;12.81;100.00
79309;BME280;68767;53.078;7.386;2023-07-20T03:36:45;101516.66;;;12.77;100.00
79309;BME280;68767;53.078;7.386;2023-07-20T03:39:12;101527.44;;;12.77;100.00
79309;BME280;68767;53.078;7.386;2023-07-20T03:41:39;101517.75;;;12.67;100.00
79309;BME280;68767;53.078;7.386;2023-07-20T03:44:06;101527.56;;;12.63;100.00
79309;BME280;68767;53.078;7.386;2023-07-20T03:46:33;101517.41;;;12.60;100.00
79309;BME280;68767;53.078;7.386;2023-07-20T03:49:01;101527.88;;;12.61;100.00
79309;BME280;68767;53.078;7.386;2023-07-20T03:51:28;101523.28;;;12.62;100.00
79309;BME280;68767;53.078;7.386;2023-07-20T03:53:56;101527.44;;;12.68;100.00
79309;BME280;68767;53.078;7.386;2023-07-20T03:56:23;101523.31;;;12.71;100.00
79309;BME280;68767;53.078;7.386;2023-07-20T03:58:51;101521.53;;;12.57;100.00
79309;BME280;68767;53.078;7.386;2023-07-20T04:01:18;101531.03;;;12.55;100.00
79309;BME280;68767;53.078;7.386;2023-07-20T04:03:45;101530.09;;;12.51;100.00
79309;BME280;68767;53.078;7.386;2023-07-20T04:06:15;101525.31;;;12.48;100.00
79309;BME280;68767;53.078;7.386;2023-07-20T04:08:44;101522.25;;;12.41;100.00
79309;BME280;68767;53.078;7.386;2023-07-20T04:11:13;101522.28;;;12.49;100.00
79309;BME280;68767;53.078;7.386;2023-07-20T04:13:41;101520.91;;;12.60;100.00
79309;BME280;68767;53.078;7.386;2023-07-20T04:16:08;101530.25;;;12.54;100.00
79309;BME280;68767;53.078;7.386;2023-07-20T04:18:35;101526.13;;;12.57;100.00
79309;BME280;68767;53.078;7.386;2023-07-20T04:21:02;101524.41;;;12.61;100.00
79309;BME280;68767;53.078;7.386;2023-07-20T04:23:29;101527.53;;;12.54;100.00
79309;BME280;68767;53.078;7.386;2023-07-20T04:25:56;101531.38;;;12.62;100.00
79309;BME280;68767;53.078;7.386;2023-07-20T04:28:23;101527.41;;;12.59;100.00
79309;BME280;68767;53.078;7.386;2023-07-20T04:30:52;101532.47;;;12.61;100.00
79309;BME280;68767;53.078;7.386;2023-07-20T04:33:21;101535.53;;;12.68;100.00
79309;BME280;68767;53.078;7.386;2023-07-20T04:35:53;101548.47;;;12.57;100.00
79309;BME280;68767;53.078;7.386;2023-07-20T04:38:24;101544.38;;;12.60;100.00
79309;BME280;68767;53.078;7.386;2023-07-20T04:41:05;101535.53;;;12.68;100.00
79309;BME280;68767;53.078;7.386;2023-07-20T04:43:41;101549.59;;;12.65;100.00
79309;BME280;68767;53.078;7.386;2023-07-20T04:46:08;101548.03;;;12.64;100.00
79309;BME280;68767;53.078;7.386;2023-07-20T04:48:36;101553.44;;;12.73;100.00
79309;BME280;68767;53.078;7.386;2023-07-20T04:51:03;101550.41;;;12.74;100.00
79309;BME280;68767;53.078;7.386;2023-07-20T04:53:30;101559.47;;;12.70;100.00
79309;BME280;68767;53.078;7.386;2023-07-20T04:55:57;101557.59;;;12.79;100.00
79309;BME280;68767;53.078;7.386;2023-07-20T04:58:24;101558.06;;;12.81;100.00
79309;BME280;68767;53.078;7.386;2023-07-20T05:00:53;101558.88;;;12.90;100.00
79309;BME280;68767;53.078;7.386;2023-07-20T05:03:21;101562.34;;;12.90;100.00
79309;BME280;68767;53.078;7.386;2023-07-20T05:05:48;101555.09;;;13.00;100.00
79309;BME280;68767;53.078;7.386;2023-07-20T05:08:16;101555.72;;;13.14;100.00
79309;BME280;68767;53.078;7.386;2023-07-20T05:10:43;101553.38;;;13.30;100.00
79309;BME280;68767;53.078;7.386;2023-07-20T05:13:11;101554.50;;;13.55;100.00
79309;BME280;68767;53.078;7.386;2023-07-20T05:15:38;101549.25;;;13.67;100.00
79309;BME280;68767;53.078;7.386;2023-07-20T05:18:08;101550.16;;;13.80;100.00
79309;BME280;68767;53.078;7.386;2023-07-20T05:20:35;101562.06;;;13.87;100.00
79309;BME280;68767;53.078;7.386;2023-07-20T05:23:02;101558.91;;;13.85;100.00
79309;BME280;68767;53.078;7.386;2023-07-20T05:25:29;101559.34;;;13.96;100.00
79309;BME280;68767;53.078;7.386;2023-07-20T05:27:57;101563.59;;;14.14;100.00
79309;BME280;68767;53.078;7.386;2023-07-20T05:30:24;101560.13;;;14.05;100.00
79309;BME280;68767;53.078;7.386;2023-07-20T05:32:51;101561.44;;;13.99;100.00
79309;BME280;68767;53.078;7.386;2023-07-20T05:35:19;101567.75;;;14.03;100.00
79309;BME280;68767;53.078;7.386;2023-07-20T05:37:46;101558.75;;;13.90;100.00
79309;BME280;68767;53.078;7.386;2023-07-20T05:40:14;101567.66;;;13.91;100.00
79309;BME280;68767;53.078;7.386;2023-07-20T05:42:46;101562.88;;;13.79;100.00
79309;BME280;68767;53.078;7.386;2023-07-20T05:45:14;101562.25;;;13.73;100.00
79309;BME280;68767;53.078;7.386;2023-07-20T05:47:42;101566.53;;;13.83;100.00
79309;BME280;68767;53.078;7.386;2023-07-20T05:50:09;101563.22;;;13.77;100.00
79309;BME280;68767;53.078;7.386;2023-07-20T05:52:36;101568.47;;;13.83;100.00
79309;BME280;68767;53.078;7.386;2023-07-20T05:55:06;101572.09;;;13.78;100.00
79309;BME280;68767;53.078;7.386;2023-07-20T05:57:33;101571.66;;;13.67;100.00
79309;BME280;68767;53.078;7.386;2023-07-20T06:00:01;101568.47;;;13.65;100.00
79309;BME280;68767;53.078;7.386;2023-07-20T06:02:37;101571.00;;;13.70;100.00
79309;BME280;68767;53.078;7.386;2023-07-20T06:05:05;101575.91;;;13.86;100.00
79309;BME280;68767;53.078;7.386;2023-07-20T06:07:32;101575.44;;;13.92;100.00
79309;BME280;68767;53.078;7.386;2023-07-20T06:09:59;101580.81;;;13.92;100.00
79309;BME280;68767;53.078;7.386;2023-07-20T06:12:26;101576.66;;;14.03;100.00
79309;BME280;68767;53.078;7.386;2023-07-20T06:14:53;101583.19;;;14.02;100.00
79309;BME280;68767;53.078;7.386;2023-07-20T06:17:20;101585.22;;;14.05;100.00
79309;BME280;68767;53.078;7.386;2023-07-20T06:19:47;101592.53;;;14.14;100.00
79309;BME280;68767;53.078;7.386;2023-07-20T06:22:14;101592.69;;;14.17;100.00
79309;BME280;68767;53.078;7.386;2023-07-20T06:24:42;101588.22;;;14.21;100.00
79309;BME280;68767;53.078;7.386;2023-07-20T06:27:09;101602.34;;;14.27;100.00
79309;BME280;68767;53.078;7.386;2023-07-20T06:29:36;101592.63;;;14.34;100.00
79309;BME280;68767;53.078;7.386;2023-07-20T06:32:03;101587.72;;;14.28;100.00
79309;BME280;68767;53.078;7.386;2023-07-20T06:34:30;101590.09;;;14.29;100.00
79309;BME280;68767;53.078;7.386;2023-07-20T06:36:57;101590.69;;;14.44;100.00
79309;BME280;68767;53.078;7.386;2023-07-20T06:39:24;101593.56;;;14.39;100.00
79309;BME280;68767;53.078;7.386;2023-07-20T06:41:54;101591.19;;;14.46;100.00
79309;BME280;68767;53.078;7.386;2023-07-20T06:44:21;101595.25;;;14.60;100.00
79309;BME280;68767;53.078;7.386;2023-07-20T06:46:48;101592.38;;;14.66;100.00
79309;BME280;68767;53.078;7.386;2023-07-20T06:49:26;101600.59;;;14.78;100.00
79309;BME280;68767;53.078;7.386;2023-07-20T06:51:53;101595.00;;;14.83;100.00
79309;BME280;68767;53.078;7.386;2023-07-20T06:54:20;101591.56;;;14.95;100.00
79309;BME280;68767;53.078;7.386;2023-07-20T06:56:49;101592.91;;;15.09;100.00
79309;BME280;68767;53.078;7.386;2023-07-20T06:59:36;101590.03;;;15.14;100.00
79309;BME280;68767;53.078;7.386;2023-07-20T07:02:08;101591.41;;;15.21;100.00
79309;BME280;68767;53.078;7.386;2023-07-20T07:04:41;101593.41;;;15.32;100.00
79309;BME280;68767;53.078;7.386;2023-07-20T07:07:08;101597.28;;;15.43;100.00
79309;BME280;68767;53.078;7.386;2023-07-20T07:09:36;101599.00;;;15.69;100.00
79309;BME280;68767;53.078;7.386;2023-07-20T07:12:04;101595.56;;;15.81;100.00
79309;BME280;68767;53.078;7.386;2023-07-20T07:14:31;101594.91;;;15.96;100.00
79309;BME280;68767;53.078;7.386;2023-07-20T07:16:59;101598.31;;;16.05;100.00
79309;BME280;68767;53.078;7.386;2023-07-20T07:19:30;101590.78;;;16.11;100.00
79309;BME280;68767;53.078;7.386;2023-07-20T07:21:57;101591.75;;;16.51;100.00
79309;BME280;68767;53.078;7.386;2023-07-20T07:24:26;101593.13;;;16.82;100.00
79309;BME280;68767;53.078;7.386;2023-07-20T07:26:55;101602.41;;;16.81;100.00
79309;BME280;68767;53.078;7.386;2023-07-20T07:29:22;101596.63;;;16.82;100.00
79309;BME280;68767;53.078;7.386;2023-07-20T07:31:49;101606.81;;;16.85;100.00
79309;BME280;68767;53.078;7.386;2023-07-20T07:34:16;101603.63;;;16.71;100.00
79309;BME280;68767;53.078;7.386;2023-07-20T07:36:43;101607.34;;;16.67;100.00
79309;BME280;68767;53.078;7.386;2023-07-20T07:39:10;101605.34;;;16.88;100.00
79309;BME280;68767;53.078;7.386;2023-07-20T07:41:57;101599.69;;;16.93;100.00
79309;BME280;68767;53.078;7.386;2023-07-20T07:44:26;101605.66;;;16.87;100.00
79309;BME280;68767;53.078;7.386;2023-07-20T07:46:53;101611.09;;;16.99;100.00
79309;BME280;68767;53.078;7.386;2023-07-20T07:49:20;101613.47;;;17.00;100.00
79309;BME280;68767;53.078;7.386;2023-07-20T07:51:47;101618.00;;;17.08;100.00
79309;BME280;68767;53.078;7.386;2023-07-20T07:54:14;101618.78;;;17.09;100.00
79309;BME280;68767;53.078;7.386;2023-07-20T07:56:41;101613.69;;;17.07;100.00
79309;BME280;68767;53.078;7.386;2023-07-20T07:59:08;101617.53;;;17.59;100.00
79309;BME280;68767;53.078;7.386;2023-07-20T08:01:34;101624.13;;;17.86;100.00
79309;BME280;68767;53.078;7.386;2023-07-20T08:04:01;101620.63;;;17.85;100.00
79309;BME280;68767;53.078;7.386;2023-07-20T08:06:30;101623.03;;;17.75;100.00
79309;BME280;68767;53.078;7.386;2023-07-20T08:08:58;101623.88;;;17.91;100.00
79309;BME280;68767;53.078;7.386;2023-07-20T08:11:25;101617.56;;;18.03;100.00
79309;BME280;68767;53.078;7.386;2023-07-20T08:13:52;101613.50;;;18.24;100.00
79309;BME280;68767;53.078;7.386;2023-07-20T08:16:18;101619.38;;;18.58;100.00
79309;BME280;68767;53.078;7.386;2023-07-20T08:18:46;101619.19;;;18.35;98.59
79309;BME280;68767;53.078;7.386;2023-07-20T08:21:13;101628.88;;;18.64;100.00
79309;BME280;68767;53.078;7.386;2023-07-20T08:23:40;101616.88;;;18.65;100.00
79309;BME280;68767;53.078;7.386;2023-07-20T08:26:06;101623.78;;;18.63;100.00
79309;BME280;68767;53.078;7.386;2023-07-20T08:28:34;101635.25;;;18.24;100.00
79309;BME280;68767;53.078;7.386;2023-07-20T08:31:01;101635.53;;;17.91;100.00
79309;BME280;68767;53.078;7.386;2023-07-20T08:33:29;101646.47;;;17.39;100.00
79309;BME280;68767;53.078;7.386;2023-07-20T08:36:03;101656.78;;;16.84;100.00
79309;BME280;68767;53.078;7.386;2023-07-20T08:38:30;101656.94;;;16.31;100.00
79309;BME280;68767;53.078;7.386;2023-07-20T08:40:57;101659.41;;;15.90;100.00
79309;BME280;68767;53.078;7.386;2023-07-20T08:43:27;101656.16;;;15.76;100.00
79309;BME280;68767;53.078;7.386;2023-07-20T08:45:55;101658.72;;;15.93;100.00
79309;BME280;68767;53.078;7.386;2023-07-20T08:48:24;101659.06;;;16.25;100.00
79309;BME280;68767;53.078;7.386;2023-07-20T08:50:52;101658.22;;;16.57;100.00
79309;BME280;68767;53.078;7.386;2023-07-20T08:53:22;101661.66;;;16.91;100.00
79309;BME280;68767;53.078;7.386;2023-07-20T08:55:52;101666.19;;;16.75;100.00
79309;BME280;68767;53.078;7.386;2023-07-20T08:58:20;101672.78;;;16.53;100.00
79309;BME280;68767;53.078;7.386;2023-07-20T09:00:47;101661.59;;;16.42;100.00
79309;BME280;68767;53.078;7.386;2023-07-20T09:03:18;101661.47;;;16.39;100.00
79309;BME280;68767;53.078;7.386;2023-07-20T09:05:46;101673.13;;;16.51;100.00
79309;BME280;68767;53.078;7.386;2023-07-20T09:08:13;101672.06;;;16.89;100.00
79309;BME280;68767;53.078;7.386;2023-07-20T09:10:40;101664.38;;;16.79;100.00
79309;BME280;68767;53.078;7.386;2023-07-20T09:13:07;101668.22;;;16.78;100.00
79309;BME280;68767;53.078;7.386;2023-07-20T09:15:36;101666.66;;;17.13;100.00
79309;BME280;68767;53.078;7.386;2023-07-20T09:18:03;101662.50;;;17.56;100.00
79309;BME280;68767;53.078;7.386;2023-07-20T09:20:32;101655.06;;;17.69;100.00
79309;BME280;68767;53.078;7.386;2023-07-20T09:22:59;101653.66;;;17.72;100.00
79309;BME280;68767;53.078;7.386;2023-07-20T09:25:27;101654.06;;;18.02;100.00
79309;BME280;68767;53.078;7.386;2023-07-20T09:27:57;101655.97;;;18.13;100.00
79309;BME280;68767;53.078;7.386;2023-07-20T09:30:25;101650.03;;;18.39;100.00
79309;BME280;68767;53.078;7.386;2023-07-20T09:32:58;101654.16;;;18.49;100.00
79309;BME280;68767;53.078;7.386;2023-07-20T09:35:25;101650.47;;;18.57;100.00
79309;BME280;68767;53.078;7.386;2023-07-20T09:38:01;101647.66;;;18.69;100.00
79309;BME280;68767;53.078;7.386;2023-07-20T09:40:37;101646.00;;;18.80;100.00
79309;BME280;68767;53.078;7.386;2023-07-20T09:43:08;101647.00;;;19.07;100.00
79309;BME280;68767;53.078;7.386;2023-07-20T09:45:42;101644.25;;;19.23;100.00
79309;BME280;68767;53.078;7.386;2023-07-20T09:48:12;101636.59;;;19.64;97.83
79309;BME280;68767;53.078;7.386;2023-07-20T09:50:48;101636.97;;;20.05;100.00
79309;BME280;68767;53.078;7.386;2023-07-20T09:53:18;101638.31;;;19.72;99.75
79309;BME280;68767;53.078;7.386;2023-07-20T09:55:46;101639.28;;;20.03;98.37
79309;BME280;68767;53.078;7.386;2023-07-20T09:58:16;101646.97;;;20.62;95.91
79309;BME280;68767;53.078;7.386;2023-07-20T10:00:44;101639.69;;;20.70;94.51
79309;BME280;68767;53.078;7.386;2023-07-20T10:03:21;101643.38;;;20.58;96.81
79309;BME280;68767;53.078;7.386;2023-07-20T10:05:57;101645.63;;;19.87;100.00
79309;BME280;68767;53.078;7.386;2023-07-20T10:08:25;101655.34;;;19.15;100.00
79309;BME280;68767;53.078;7.386;2023-07-20T10:10:59;101653.97;;;18.58;100.00
79309;BME280;68767;53.078;7.386;2023-07-20T10:13:29;101651.03;;;18.19;100.00
79309;BME280;68767;53.078;7.386;2023-07-20T10:16:34;101652.69;;;18.08;100.00
79309;BME280;68767;53.078;7.386;2023-07-20T10:19:05;101645.66;;;18.66;100.00
79309;BME280;68767;53.078;7.386;2023-07-20T10:21:47;101652.94;;;19.29;97.00
79309;BME280;68767;53.078;7.386;2023-07-20T10:24:23;101648.94;;;20.19;85.26
79309;BME280;68767;53.078;7.386;2023-07-20T10:26:50;101645.91;;;20.44;82.06
79309;BME280;68767;53.078;7.386;2023-07-20T10:29:18;101650.84;;;19.96;81.76
79309;BME280;68767;53.078;7.386;2023-07-20T10:31:46;101645.19;;;19.66;89.89
79309;BME280;68767;53.078;7.386;2023-07-20T10:34:13;101649.34;;;19.60;92.47
79309;BME280;68767;53.078;7.386;2023-07-20T10:36:45;101640.09;;;19.64;91.65
79309;BME280;68767;53.078;7.386;2023-07-20T10:39:23;101639.22;;;19.80;90.00
79309;BME280;68767;53.078;7.386;2023-07-20T10:41:59;101642.47;;;20.51;86.15
79309;BME280;68767;53.078;7.386;2023-07-20T10:44:27;101637.69;;;20.93;84.59
79309;BME280;68767;53.078;7.386;2023-07-20T10:47:02;101636.94;;;21.23;82.12
79309;BME280;68767;53.078;7.386;2023-07-20T10:49:33;101633.38;;;21.79;75.95
79309;BME280;68767;53.078;7.386;2023-07-20T10:52:03;101623.53;;;22.08;71.16
79309;BME280;68767;53.078;7.386;2023-07-20T10:57:29;101633.16;;;21.98;71.99
79309;BME280;68767;53.078;7.386;2023-07-20T11:00:19;101621.25;;;22.17;75.29
79309;BME280;68767;53.078;7.386;2023-07-20T11:02:47;101623.56;;;22.56;72.63
79309;BME280;68767;53.078;7.386;2023-07-20T11:05:47;101622.13;;;21.87;70.12
79309;BME280;68767;53.078;7.386;2023-07-20T11:08:40;101617.66;;;20.59;72.72
79309;BME280;68767;53.078;7.386;2023-07-20T11:11:30;101642.66;;;19.96;83.74
79309;BME280;68767;53.078;7.386;2023-07-20T11:13:58;101632.84;;;19.72;84.36
79309;BME280;68767;53.078;7.386;2023-07-20T11:16:38;101635.94;;;19.71;81.92
79309;BME280;68767;53.078;7.386;2023-07-20T11:19:14;101638.41;;;19.99;82.14
79309;BME280;68767;53.078;7.386;2023-07-20T11:21:50;101633.19;;;20.55;78.00
79309;BME280;68767;53.078;7.386;2023-07-20T11:24:28;101628.91;;;21.07;74.57
79309;BME280;68767;53.078;7.386;2023-07-20T11:26:55;101622.66;;;21.33;72.86
79309;BME280;68767;53.078;7.386;2023-07-20T11:29:23;101620.78;;;22.08;73.49
79309;BME280;68767;53.078;7.386;2023-07-20T11:31:59;101618.75;;;22.42;71.13
79309;BME280;68767;53.078;7.386;2023-07-20T11:34:26;101627.31;;;22.00;74.03
79309;BME280;68767;53.078;7.386;2023-07-20T11:36:54;101632.63;;;21.22;75.43
79309;BME280;68767;53.078;7.386;2023-07-20T11:39:24;101628.53;;;20.56;78.53
79309;BME280;68767;53.078;7.386;2023-07-20T11:41:56;101622.00;;;20.41;82.34
79309;BME280;68767;53.078;7.386;2023-07-20T11:44:26;101624.50;;;20.04;82.78
79309;BME280;68767;53.078;7.386;2023-07-20T11:47:05;101622.50;;;19.81;81.69
79309;BME280;68767;53.078;7.386;2023-07-20T11:49:36;101621.09;;;19.52;87.00
79309;BME280;68767;53.078;7.386;2023-07-20T11:52:08;101622.00;;;19.56;88.59
79309;BME280;68767;53.078;7.386;2023-07-20T11:54:39;101619.69;;;19.39;89.05
79309;BME280;68767;53.078;7.386;2023-07-20T11:57:07;101623.84;;;19.33;87.48
79309;BME280;68767;53.078;7.386;2023-07-20T11:59:55;101616.81;;;19.32;91.35
79309;BME280;68767;53.078;7.386;2023-07-20T12:02:27;101622.81;;;19.22;86.03
79309;BME280;68767;53.078;7.386;2023-07-20T12:04:54;101619.72;;;19.58;87.26
79309;BME280;68767;53.078;7.386;2023-07-20T12:07:22;101627.44;;;21.13;82.07
79309;BME280;68767;53.078;7.386;2023-07-20T12:10:11;101617.59;;;22.06;77.15
79309;BME280;68767;53.078;7.386;2023-07-20T12:12:43;101608.22;;;22.99;72.34
79309;BME280;68767;53.078;7.386;2023-07-20T12:15:21;101615.19;;;25.33;59.46
79309;BME280;68767;53.078;7.386;2023-07-20T12:17:52;101606.91;;;26.10;52.60
79309;BME280;68767;53.078;7.386;2023-07-20T12:20:34;101602.78;;;27.49;41.29
79309;BME280;68767;53.078;7.386;2023-07-20T12:23:07;101599.41;;;27.65;41.04
79309;BME280;68767;53.078;7.386;2023-07-20T12:25:42;101589.47;;;27.40;41.56
79309;BME280;68767;53.078;7.386;2023-07-20T12:28:17;101592.91;;;28.29;41.83
79309;BME280;68767;53.078;7.386;2023-07-20T12:30:45;101590.09;;;28.56;38.69
79309;BME280;68767;53.078;7.386;2023-07-20T12:33:13;101588.50;;;27.24;40.73
79309;BME280;68767;53.078;7.386;2023-07-20T12:35:44;101597.31;;;25.70;45.44
79309;BME280;68767;53.078;7.386;2023-07-20T12:38:11;101604.34;;;24.55;53.66
79309;BME280;68767;53.078;7.386;2023-07-20T12:40:40;101588.16;;;23.61;57.11
79309;BME280;68767;53.078;7.386;2023-07-20T12:43:07;101588.97;;;22.92;61.05
79309;BME280;68767;53.078;7.386;2023-07-20T12:45:35;101587.81;;;22.38;66.08
79309;BME280;68767;53.078;7.386;2023-07-20T12:48:02;101594.97;;;21.68;64.28
79309;BME280;68767;53.078;7.386;2023-07-20T12:50:29;101593.94;;;21.50;67.70
79309;BME280;68767;53.078;7.386;2023-07-20T12:52:56;101596.53;;;21.09;70.62
79309;BME280;68767;53.078;7.386;2023-07-20T12:55:23;101600.72;;;20.73;76.14
79309;BME280;68767;53.078;7.386;2023-07-20T12:57:50;101601.00;;;20.68;79.22
79309;BME280;68767;53.078;7.386;2023-07-20T13:00:17;101601.31;;;21.16;79.50
79309;BME280;68767;53.078;7.386;2023-07-20T13:02:44;101589.19;;;21.43;74.93
79309;BME280;68767;53.078;7.386;2023-07-20T13:05:11;101592.75;;;21.47;73.31